Aviation Digital Data Service (ADDS)

Output produced by METARs form (0757 UTC 18 January 2018)
found at http://aviationweather.gov/adds/metars/
 
KHKY 180524Z 1806/1906 32006KT P6SM SKC 
     FM181600 25005KT P6SM SKC